首页
METAR-TAF:

METAR-TAF

机场 :

康瑟尔布拉夫斯, 艾奥瓦州, 美国

纬度: 41-16N, 经度: 095-46W, 海拔: 382米

当前天气观测

该预报发布于21分钟前的05:35 UTC
风速11节,风向南转西南,有时为16节阵风
温度 30°C
湿度 62%
气压 1005 hPa
能見度: 16.1公里
天空无云

METAR: KCBF 250535Z AUTO 20011G16KT 10SM CLR 30/22 A2969 RMK AO2

时间: 00:56 (05:56 UTC)


TAF: 丢失

超过4000个机场的气象观测和天气预报(METAR&TAF报告)。

可查询的气象台以黄色和红色小点在地图上表示。

将鼠标移到小点上方,可查看气象台名称。

然后点击查看天气观测和预报。

如需切换地图:点击带黑十字的绿色按钮放大地图;点击带横线的绿色按钮缩小地图;或者点击绿色箭头查看邻近地区的地图。


METAR-TAF: